Time,TemperatureF,DewpointF,PressureIn,WindDirection,WindDirectionDegrees,WindSpeedMPH,WindSpeedGustMPH,Humidity,HourlyPrecipIn,Conditions,Clouds,dailyrainin,SolarRadiationWatts/m^2,SoftwareType,DateUTC
2013-03-13 00:03:00,63.6,60.0,29.98,NW,308,0.0,6.0,88,0.00,,---,0.02,0.00,VWS V14.01,2013-03-13 04:03:00,
2013-03-13 00:33:00,62.0,58.4,29.98,NW,307,4.0,7.0,88,0.00,,---,0.00,0.00,VWS V14.01,2013-03-13 04:33:00,
2013-03-13 01:03:00,61.4,58.1,29.99,NW,318,2.0,10.0,89,0.00,,---,0.00,0.00,VWS V14.01,2013-03-13 05:03:00,
2013-03-13 01:33:00,60.0,57.1,29.99,WNW,295,1.0,9.0,90,0.00,,---,0.00,0.00,VWS V14.01,2013-03-13 05:33:00,
2013-03-13 02:03:00,58.5,55.9,29.99,WNW,300,1.0,5.0,91,0.00,,---,0.00,0.00,VWS V14.01,2013-03-13 06:03:00,
2013-03-13 02:33:00,57.5,55.2,29.99,WNW,292,0.0,3.0,92,0.00,,---,0.00,0.00,VWS V14.01,2013-03-13 06:33:00,
2013-03-13 03:03:00,56.7,54.7,29.98,NW,304,1.0,6.0,93,0.00,,---,0.00,0.00,VWS V14.01,2013-03-13 07:03:00,
2013-03-13 03:33:00,56.3,54.6,29.99,NW,309,0.0,7.0,94,0.00,,---,0.00,0.00,VWS V14.01,2013-03-13 07:33:00,
2013-03-13 04:03:00,55.9,54.2,29.98,NW,313,2.0,5.0,94,0.00,,---,0.00,0.00,VWS V14.01,2013-03-13 08:03:00,
2013-03-13 04:33:00,55.5,53.8,29.99,NW,313,0.0,4.0,94,0.00,,---,0.00,0.00,VWS V14.01,2013-03-13 08:33:00,
2013-03-13 05:03:00,54.7,53.0,30.00,NW,312,0.0,5.0,94,0.00,,---,0.00,0.00,VWS V14.01,2013-03-13 09:03:00,
2013-03-13 05:33:00,54.0,52.0,30.01,NW,311,1.0,4.0,93,0.00,,---,0.00,0.00,VWS V14.01,2013-03-13 09:33:00,
2013-03-13 06:03:00,53.2,51.2,30.01,NW,311,0.0,6.0,93,0.00,,---,0.00,0.00,VWS V14.01,2013-03-13 10:03:00,
2013-03-13 06:33:00,52.4,50.4,30.02,NW,311,0.0,3.0,93,0.00,,---,0.00,0.00,VWS V14.01,2013-03-13 10:33:00,
2013-03-13 07:03:00,51.9,49.9,30.03,NW,311,0.0,5.0,93,0.00,,---,0.00,0.00,VWS V14.01,2013-03-13 11:03:00,
2013-03-13 07:33:00,51.3,49.3,30.05,NW,311,1.0,4.0,93,0.00,,---,0.00,0.00,VWS V14.01,2013-03-13 11:33:00,
2013-03-13 08:03:00,51.2,49.0,30.05,NW,306,0.0,5.0,92,0.00,,---,0.00,44.00,VWS V14.01,2013-03-13 12:03:00,
2013-03-13 08:33:00,52.1,49.6,30.07,NW,310,0.0,5.0,91,0.00,,---,0.00,155.00,VWS V14.01,2013-03-13 12:33:00,
2013-03-13 09:03:00,54.6,51.1,30.07,NW,319,0.0,6.0,88,0.00,,---,0.00,294.00,VWS V14.01,2013-03-13 13:03:00,
2013-03-13 09:33:00,58.3,53.5,30.08,NNW,337,2.0,9.0,84,0.00,,---,0.00,369.00,VWS V14.01,2013-03-13 13:33:00,
2013-03-13 10:03:00,61.3,54.0,30.09,NW,324,4.0,10.0,77,0.00,,---,0.00,478.00,VWS V14.01,2013-03-13 14:03:00,
2013-03-13 10:33:00,64.0,54.4,30.10,NW,319,6.0,11.0,71,0.00,,---,0.00,584.00,VWS V14.01,2013-03-13 14:33:00,
2013-03-13 11:03:00,65.6,54.8,30.11,NNW,339,2.0,14.0,68,0.00,,---,0.00,668.00,VWS V14.01,2013-03-13 15:03:00,
2013-03-13 11:33:00,67.2,56.3,30.12,NW,324,11.0,15.0,68,0.00,,---,0.00,740.00,VWS V14.01,2013-03-13 15:33:00,
2013-03-13 12:03:00,68.1,55.0,30.11,NNW,345,9.0,16.0,63,0.00,,---,0.00,793.00,VWS V14.01,2013-03-13 16:03:00,
2013-03-13 12:33:00,69.6,55.1,30.12,NNW,333,6.0,17.0,60,0.00,,---,0.00,846.00,VWS V14.01,2013-03-13 16:33:00,
2013-03-13 13:03:00,71.2,54.2,30.12,NNW,342,4.0,15.0,55,0.00,,---,0.00,870.00,VWS V14.01,2013-03-13 17:03:00,
2013-03-13 13:33:00,72.2,53.6,30.11,North,355,13.0,19.0,52,0.00,,---,0.00,858.00,VWS V14.01,2013-03-13 17:33:00,
2013-03-13 14:03:00,72.2,54.7,30.09,North,9,3.0,17.0,54,0.00,,---,0.00,606.00,VWS V14.01,2013-03-13 18:03:00,
2013-03-13 14:33:00,71.3,55.8,30.08,NW,323,5.0,17.0,58,0.00,,---,0.00,837.00,VWS V14.01,2013-03-13 18:33:00,
2013-03-13 15:03:00,72.0,55.5,30.08,NNW,338,7.0,14.0,56,0.00,,---,0.00,545.00,VWS V14.01,2013-03-13 19:03:00,
2013-03-13 15:33:00,71.6,54.6,30.07,NNE,24,4.0,14.0,55,0.00,,---,0.00,777.00,VWS V14.01,2013-03-13 19:33:00,
2013-03-13 16:03:00,71.6,52.5,30.07,North,350,5.0,14.0,51,0.00,,---,0.00,671.00,VWS V14.01,2013-03-13 20:03:00,
2013-03-13 16:33:00,71.2,51.6,30.06,NNE,32,0.0,13.0,50,0.00,,---,0.00,578.00,VWS V14.01,2013-03-13 20:33:00,
2013-03-13 17:03:00,71.2,51.6,30.06,North,5,4.0,12.0,50,0.00,,---,0.00,497.00,VWS V14.01,2013-03-13 21:03:00,
2013-03-13 17:33:00,70.0,53.1,30.05,North,5,6.0,10.0,55,0.00,,---,0.00,352.00,VWS V14.01,2013-03-13 21:33:00,
2013-03-13 18:03:00,67.1,52.3,30.05,North,355,2.0,10.0,59,0.00,,---,0.00,142.00,VWS V14.01,2013-03-13 22:03:00,
2013-03-13 18:33:00,67.1,52.3,30.05,North,355,1.0,7.0,59,0.00,,---,0.00,169.00,VWS V14.01,2013-03-13 22:33:00,
2013-03-13 19:03:00,66.1,51.8,30.06,North,355,3.0,9.0,60,0.00,,---,0.00,25.00,VWS V14.01,2013-03-13 23:03:00,
2013-03-13 19:33:00,64.2,51.8,30.06,North,360,0.0,5.0,64,0.00,,---,0.00,0.00,VWS V14.01,2013-03-13 23:33:00,
2013-03-13 20:03:00,61.9,50.8,30.07,North,360,0.0,0.0,67,0.00,,---,0.00,0.00,VWS V14.01,2013-03-14 00:03:00,
2013-03-13 20:33:00,59.4,49.6,30.07,North,360,0.0,0.0,70,0.00,,---,0.00,0.00,VWS V14.01,2013-03-14 00:33:00,
2013-03-13 21:03:00,56.8,49.3,30.09,North,360,0.0,0.0,76,0.00,,---,0.00,0.00,VWS V14.01,2013-03-14 01:03:00,
2013-03-13 21:33:00,54.8,48.8,30.10,North,360,0.0,0.0,80,0.00,,---,0.00,0.00,VWS V14.01,2013-03-14 01:33:00,
2013-03-13 22:03:00,53.2,48.2,30.10,North,360,0.0,0.0,83,0.00,,---,0.00,0.00,VWS V14.01,2013-03-14 02:03:00,
2013-03-13 22:33:00,52.1,47.7,30.11,North,360,0.0,0.0,85,0.00,,---,0.00,0.00,VWS V14.01,2013-03-14 02:33:00,
2013-03-13 23:03:00,51.0,47.0,30.12,North,360,0.0,0.0,86,0.00,,---,0.00,0.00,VWS V14.01,2013-03-14 03:03:00,
2013-03-13 23:33:00,50.9,48.4,30.12,North,360,0.0,0.0,91,0.00,,---,0.00,0.00,VWS V14.01,2013-03-14 03:33:00,